Time;durP1;ratioP1;P1;durP2;ratioP2;P2;SDS_P1;SDS_P2;PMS_P1;PMS_P2;Temp;Humidity;BMP_temperature;BMP_pressure;BME280_temperature;BME280_humidity;BME280_pressure;Samples;Min_cycle;Max_cycle;Signal;HPM_P1;HPM_P2
2022/06/13 00:01:55;;;;;;;5.00;1.25;;;;;;;17.45;57.93;100448.97;5084638;28;20048;-86
2022/06/13 00:04:21;;;;;;;3.88;1.35;;;;;;;17.19;58.44;100443.50;5076788;28;20440;-86
2022/06/13 00:06:47;;;;;;;4.43;1.20;;;;;;;17.06;58.63;100444.50;5084194;28;20074;-76
2022/06/13 00:09:13;;;;;;;6.88;1.20;;;;;;;17.02;59.03;100438.81;5096552;28;20040;-79
2022/06/13 00:11:39;;;;;;;4.35;1.05;;;;;;;17.16;58.75;100442.19;5110301;27;20379;-77
2022/06/13 00:14:05;;;;;;;1.95;1.00;;;;;;;17.25;58.74;100441.34;5073575;28;20037;-78
2022/06/13 00:16:31;;;;;;;2.92;1.30;;;;;;;17.05;58.82;100438.16;5073840;28;20036;-78
2022/06/13 00:18:57;;;;;;;2.50;1.10;;;;;;;17.08;58.82;100443.03;5068881;28;20042;-77
2022/06/13 00:21:27;;;;;;;4.47;1.15;;;;;;;17.17;58.09;100438.25;5092635;28;20040;-78
2022/06/13 00:23:53;;;;;;;3.55;1.05;;;;;;;17.00;58.13;100431.94;5094069;28;20110;-78
2022/06/13 00:26:21;;;;;;;2.00;1.02;;;;;;;16.96;58.70;100436.53;5103647;28;20067;-78
2022/06/13 00:28:48;;;;;;;0.87;0.80;;;;;;;16.93;58.72;100426.09;5090541;28;20032;-79
2022/06/13 00:31:14;;;;;;;3.05;1.02;;;;;;;16.87;58.69;100422.69;5088247;28;20622;-77
2022/06/13 00:33:40;;;;;;;2.15;1.00;;;;;;;16.73;59.02;100419.28;5073410;28;20562;-78
2022/06/13 00:36:06;;;;;;;3.67;1.00;;;;;;;16.69;58.70;100427.44;5086554;28;20048;-79
2022/06/13 00:38:32;;;;;;;3.67;1.10;;;;;;;16.71;58.89;100418.81;5076871;28;20028;-77
2022/06/13 00:40:58;;;;;;;2.15;0.90;;;;;;;16.84;58.93;100420.59;5080207;28;20098;-78
2022/06/13 00:43:23;;;;;;;2.53;1.20;;;;;;;16.96;58.68;100417.13;5076414;28;20040;-79
2022/06/13 00:45:49;;;;;;;2.95;1.00;;;;;;;16.92;58.62;100421.69;5091662;28;20093;-78
2022/06/13 00:48:16;;;;;;;2.15;1.02;;;;;;;16.81;58.63;100421.22;5092151;28;20448;-79
2022/06/13 00:50:49;;;;;;;1.55;0.90;;;;;;;16.70;58.85;100417.19;5077569;28;20040;-77
2022/06/13 00:53:28;;;;;;;2.47;0.90;;;;;;;16.61;58.95;100416.31;5088477;28;20096;-78
2022/06/13 00:56:15;;;;;;;2.03;1.08;;;;;;;16.52;59.38;100411.63;5071790;28;20041;-78
2022/06/13 00:58:45;;;;;;;3.92;1.33;;;;;;;16.58;59.60;100417.78;5072146;28;20123;-78
2022/06/13 01:01:11;;;;;;;3.72;1.20;;;;;;;16.55;59.81;100413.72;5090339;28;20494;-78
2022/06/13 01:03:37;;;;;;;2.20;1.00;;;;;;;16.60;59.57;100409.97;5111990;28;20039;-78
2022/06/13 01:06:05;;;;;;;1.20;0.70;;;;;;;16.67;59.65;100409.53;5100300;28;20060;-77
2022/06/13 01:08:33;;;;;;;4.43;1.00;;;;;;;16.84;59.36;100409.50;5073265;28;20590;-78
2022/06/13 01:11:17;;;;;;;2.13;0.82;;;;;;;16.99;58.91;100403.41;5074560;28;20071;-77
2022/06/13 01:13:49;;;;;;;1.05;0.80;;;;;;;17.06;58.77;100402.94;5071437;28;20550;-78
2022/06/13 01:16:39;;;;;;;1.05;0.65;;;;;;;17.14;58.81;100408.44;5077471;28;20067;-78
2022/06/13 01:19:21;;;;;;;0.70;0.60;;;;;;;17.11;58.53;100406.31;5076759;28;20090;-77
2022/06/13 01:22:21;;;;;;;1.77;0.77;;;;;;;17.15;58.68;100404.50;5080038;28;20039;-77
2022/06/13 01:25:02;;;;;;;4.95;1.00;;;;;;;17.21;58.99;100396.84;5079036;28;20055;-76
2022/06/13 01:28:01;;;;;;;1.13;0.65;;;;;;;17.15;59.03;100398.97;5073464;28;20128;-76
2022/06/13 01:30:54;;;;;;;1.48;0.55;;;;;;;17.09;59.20;100402.25;5079004;28;20040;-77
2022/06/13 01:33:57;;;;;;;4.35;1.10;;;;;;;17.06;59.10;100397.38;5080897;28;20479;-77
2022/06/13 01:36:23;;;;;;;0.75;0.73;;;;;;;16.97;59.25;100394.63;5087932;28;20033;-77
2022/06/13 01:39:33;;;;;;;1.40;0.80;;;;;;;16.86;59.74;100385.84;5075701;28;20097;-77
2022/06/13 01:42:39;;;;;;;1.00;0.90;;;;;;;16.85;59.52;100388.97;5079607;28;20062;-77
2022/06/13 01:45:19;;;;;;;1.90;0.85;;;;;;;16.82;59.65;100389.59;5086908;28;20063;-76
2022/06/13 01:48:03;;;;;;;3.25;0.98;;;;;;;16.98;59.42;100393.47;5076007;28;20045;-77
2022/06/13 01:50:30;;;;;;;2.25;0.80;;;;;;;17.07;59.15;100396.22;5073679;28;20052;-77
2022/06/13 01:53:01;;;;;;;3.65;1.05;;;;;;;17.23;58.83;100399.28;5075725;28;20037;-77
2022/06/13 01:55:39;;;;;;;1.92;0.98;;;;;;;17.35;58.69;100402.16;5082487;28;20127;-77
2022/06/13 01:58:17;;;;;;;2.83;0.83;;;;;;;17.41;58.50;100389.75;5076261;28;20032;-77
2022/06/13 02:00:48;;;;;;;1.50;0.80;;;;;;;17.42;58.40;100392.19;5084070;28;20078;-77
2022/06/13 02:03:16;;;;;;;2.97;0.90;;;;;;;17.40;59.22;100404.78;5071079;28;20045;-78
2022/06/13 02:05:54;;;;;;;2.03;0.90;;;;;;;17.48;59.13;100393.63;5076014;28;20035;-77
2022/06/13 02:08:25;;;;;;;1.00;0.80;;;;;;;17.62;58.56;100389.81;5072319;28;20037;-78
2022/06/13 02:10:57;;;;;;;5.03;1.10;;;;;;;17.65;58.84;100387.16;5063319;28;20040;-78
2022/06/13 02:13:36;;;;;;;1.80;0.80;;;;;;;17.61;58.49;100394.53;5070987;28;20047;-77
2022/06/13 02:16:08;;;;;;;2.45;0.70;;;;;;;17.74;59.03;100387.16;5071428;28;20667;-78
2022/06/13 02:18:36;;;;;;;1.02;0.90;;;;;;;17.72;59.26;100389.47;5075104;28;20039;-78
2022/06/13 02:21:10;;;;;;;3.05;0.90;;;;;;;17.66;58.75;100391.56;5090732;28;20104;-78
2022/06/13 02:23:42;;;;;;;2.10;0.57;;;;;;;17.58;59.36;100384.13;5086374;28;20044;-78
2022/06/13 02:26:16;;;;;;;0.75;0.60;;;;;;;17.61;59.00;100382.63;5075132;28;20074;-78
2022/06/13 02:29:11;;;;;;;3.17;0.80;;;;;;;17.88;58.94;100386.94;5073240;28;20044;-77
2022/06/13 02:31:40;;;;;;;0.85;0.60;;;;;;;18.04;58.11;100382.38;5073303;28;20086;-77
2022/06/13 02:34:32;;;;;;;2.25;1.15;;;;;;;18.18;57.62;100376.56;5069104;28;20062;-77
2022/06/13 02:37:09;;;;;;;1.50;0.82;;;;;;;18.22;57.46;100385.84;5079840;28;20071;-76
2022/06/13 02:39:48;;;;;;;1.38;0.88;;;;;;;18.43;57.04;100383.91;5080068;28;20064;-77
2022/06/13 02:42:13;;;;;;;;;;;;;;;18.52;56.65;100383.81;5076116;28;20512;-76
2022/06/13 02:44:47;;;;;;;1.40;0.70;;;;;;;18.39;57.11;100383.75;5070884;28;19927;-77
2022/06/13 02:47:18;;;;;;;4.03;1.08;;;;;;;18.39;57.04;100380.97;5062030;28;20482;-77
2022/06/13 02:50:04;;;;;;;2.63;1.00;;;;;;;18.41;57.00;100379.84;5086577;28;20028;-78
2022/06/13 02:52:40;;;;;;;1.23;0.82;;;;;;;18.30;57.74;100377.47;5080079;28;20044;-78
2022/06/13 02:55:09;;;;;;;5.20;0.98;;;;;;;18.27;57.29;100366.22;5081017;28;20047;-78
2022/06/13 02:57:48;;;;;;;2.22;0.80;;;;;;;18.38;57.50;100371.00;5079196;28;20028;-78
2022/06/13 03:00:18;;;;;;;2.88;0.93;;;;;;;18.45;57.71;100370.47;5074875;28;20579;-78
2022/06/13 03:02:57;;;;;;;1.27;0.65;;;;;;;18.70;57.27;100376.16;5083404;28;20066;-77
2022/06/13 03:05:52;;;;;;;2.08;1.13;;;;;;;19.11;56.31;100375.25;5070102;28;20075;-77
2022/06/13 03:08:23;;;;;;;3.28;0.90;;;;;;;19.11;55.85;100373.28;5063379;28;20033;-77
2022/06/13 03:11:26;;;;;;;2.03;0.85;;;;;;;19.15;56.02;100373.38;5088590;28;20036;-78
2022/06/13 03:14:09;;;;;;;1.42;1.05;;;;;;;19.13;55.58;100384.03;5085105;28;20081;-78
2022/06/13 03:16:53;;;;;;;1.77;0.70;;;;;;;19.10;55.58;100380.00;5086451;28;20518;-78
2022/06/13 03:19:28;;;;;;;2.60;0.98;;;;;;;19.23;55.46;100372.44;5088184;28;20040;-78
2022/06/13 03:22:15;;;;;;;1.73;0.82;;;;;;;19.41;55.28;100376.66;5088546;28;20047;-78
2022/06/13 03:25:28;;;;;;;1.55;0.75;;;;;;;19.64;54.82;100373.44;5061692;28;20035;-78
2022/06/13 03:28:12;;;;;;;4.90;0.90;;;;;;;19.57;54.51;100363.69;5062068;28;20068;-78
2022/06/13 03:30:42;;;;;;;1.42;0.70;;;;;;;19.61;54.76;100366.59;5083271;28;20037;-77
2022/06/13 03:36:04;;;;;;;1.77;0.80;;;;;;;19.60;54.93;100358.59;5079188;28;20047;-77
2022/06/13 03:38:36;;;;;;;2.25;0.85;;;;;;;19.78;54.58;100357.19;5076733;28;20036;-78
2022/06/13 03:41:03;;;;;;;3.17;1.17;;;;;;;19.95;54.22;100361.69;5068703;28;20528;-78
2022/06/13 03:43:44;;;;;;;2.55;0.98;;;;;;;20.00;54.47;100362.25;5073797;28;20525;-78
2022/06/13 03:46:15;;;;;;;2.40;0.80;;;;;;;20.13;54.22;100358.28;5082685;28;20051;-78
2022/06/13 03:48:55;;;;;;;3.28;1.13;;;;;;;20.40;53.73;100355.88;5073490;28;20043;-77
2022/06/13 03:51:25;;;;;;;3.38;1.10;;;;;;;20.23;54.12;100356.16;5069137;28;20036;-80
2022/06/13 03:54:02;;;;;;;1.85;1.08;;;;;;;20.48;53.62;100357.75;5076143;28;20495;-77
2022/06/13 03:57:22;;;;;;;3.08;1.00;;;;;;;20.51;53.63;100362.59;5070333;28;20048;-78
2022/06/13 03:59:52;;;;;;;4.32;1.20;;;;;;;20.44;53.75;100356.81;5078670;28;20491;-77
2022/06/13 04:02:24;;;;;;;2.47;1.10;;;;;;;20.54;54.12;100361.88;5072554;28;20097;-77
2022/06/13 04:04:50;;;;;;;2.67;1.10;;;;;;;20.77;53.48;100365.72;5083274;28;20131;-78
2022/06/13 04:07:21;;;;;;;1.90;1.00;;;;;;;21.01;53.55;100364.78;5058060;28;20040;-78
2022/06/13 04:09:59;;;;;;;4.65;1.40;;;;;;;21.08;52.96;100355.78;5082921;28;20078;-77
2022/06/13 04:12:49;;;;;;;3.30;1.40;;;;;;;21.22;53.15;100353.38;5081323;28;20074;-77
2022/06/13 04:15:48;;;;;;;3.72;0.93;;;;;;;21.50;52.72;100349.69;5090421;28;20047;-76
2022/06/13 04:18:41;;;;;;;2.80;1.17;;;;;;;21.41;52.77;100351.88;5077692;28;20044;-77
2022/06/13 04:21:14;;;;;;;2.88;1.02;;;;;;;21.57;51.55;100347.88;5091922;28;20040;-77
2022/06/13 04:24:09;;;;;;;3.15;0.98;;;;;;;21.66;51.69;100348.50;5061671;28;20071;-77
2022/06/13 04:26:37;;;;;;;3.20;1.17;;;;;;;21.98;50.43;100354.81;5075628;28;20063;-77
2022/06/13 04:29:05;;;;;;;4.03;1.00;;;;;;;21.94;50.77;100358.72;5087323;28;20036;-77
2022/06/13 04:31:33;;;;;;;3.55;1.23;;;;;;;21.90;50.88;100360.63;5082061;28;20518;-77
2022/06/13 04:34:13;;;;;;;5.38;0.98;;;;;;;22.03;51.12;100358.50;5071601;28;20522;-77
2022/06/13 04:36:39;;;;;;;5.30;1.80;;;;;;;22.07;50.06;100357.44;5079431;28;20067;-78
2022/06/13 04:39:07;;;;;;;4.03;1.35;;;;;;;21.74;50.81;100363.44;5074083;28;20127;-78
2022/06/13 04:41:35;;;;;;;4.57;1.38;;;;;;;21.43;51.69;100364.28;5068905;28;20085;-77
2022/06/13 04:44:02;;;;;;;3.15;1.23;;;;;;;20.90;51.55;100368.44;5083139;28;20391;-78
2022/06/13 04:46:29;;;;;;;1.20;1.08;;;;;;;20.42;53.17;100364.72;5079817;28;20048;-78
2022/06/13 04:48:57;;;;;;;3.85;1.17;;;;;;;20.13;54.53;100363.88;5087486;28;20040;-78
2022/06/13 04:51:28;;;;;;;4.57;1.60;;;;;;;20.43;54.05;100367.16;5086272;28;20495;-78
2022/06/13 04:54:06;;;;;;;3.15;1.60;;;;;;;20.73;53.86;100364.81;5071239;28;20048;-77
2022/06/13 04:56:33;;;;;;;2.67;0.90;;;;;;;21.16;52.62;100365.13;5073507;28;20037;-77
2022/06/13 04:59:00;;;;;;;4.20;1.20;;;;;;;21.54;51.81;100359.78;5087665;28;20036;-78
2022/06/13 05:01:33;;;;;;;3.97;1.17;;;;;;;22.10;50.20;100367.88;5072517;28;20044;-77
2022/06/13 05:04:02;;;;;;;3.38;1.40;;;;;;;22.42;49.84;100367.78;5074852;28;20071;-77
2022/06/13 05:06:36;;;;;;;6.40;2.15;;;;;;;22.03;49.24;100373.28;5070791;28;20099;-77
2022/06/13 05:09:33;;;;;;;1.67;1.58;;;;;;;21.72;49.24;100368.59;5076120;28;20028;-77
2022/06/13 05:12:11;;;;;;;2.75;0.95;;;;;;;22.08;49.04;100377.81;5077711;28;20465;-77
2022/06/13 05:15:01;;;;;;;0.90;0.73;;;;;;;22.33;48.63;100376.34;5086590;28;20048;-77
2022/06/13 05:17:27;;;;;;;4.10;0.93;;;;;;;22.29;48.41;100377.47;5084529;28;20035;-77
2022/06/13 05:20:11;;;;;;;4.05;1.40;;;;;;;22.31;47.82;100381.50;5090224;28;20142;-78
2022/06/13 05:22:46;;;;;;;2.97;1.08;;;;;;;22.48;47.41;100386.66;5085487;28;20123;-78
2022/06/13 05:25:49;;;;;;;3.83;1.45;;;;;;;22.73;46.39;100381.56;5077100;28;20040;-77
2022/06/13 05:28:19;;;;;;;3.03;1.30;;;;;;;22.87;46.44;100375.47;5077098;28;20082;-77
2022/06/13 05:30:56;;;;;;;3.00;0.88;;;;;;;22.77;46.50;100385.28;5082228;28;20359;-76
2022/06/13 05:33:28;;;;;;;3.88;1.17;;;;;;;23.30;44.85;100382.69;5087936;28;20043;-76
2022/06/13 05:35:56;;;;;;;5.20;1.20;;;;;;;23.66;43.17;100378.50;5082957;28;20478;-76
2022/06/13 05:38:28;;;;;;;3.95;1.10;;;;;;;23.66;43.36;100380.50;5080519;28;20036;-77
2022/06/13 05:40:54;;;;;;;2.75;1.10;;;;;;;23.90;42.51;100376.47;5086017;28;20072;-76
2022/06/13 05:43:19;;;;;;;2.85;0.90;;;;;;;24.04;42.10;100382.28;5079867;28;20083;-77
2022/06/13 05:45:45;;;;;;;1.77;0.90;;;;;;;24.10;41.11;100379.94;5072130;28;20384;-76
2022/06/13 05:48:17;;;;;;;3.03;1.00;;;;;;;24.19;40.67;100374.88;5074664;28;20044;-77
2022/06/13 05:50:44;;;;;;;4.07;1.25;;;;;;;24.52;39.89;100385.34;5071283;28;20047;-77
2022/06/13 05:53:15;;;;;;;4.18;1.10;;;;;;;24.29;40.62;100389.06;5071589;28;20036;-76
2022/06/13 05:55:42;;;;;;;2.22;0.90;;;;;;;23.91;40.49;100387.28;5089360;28;20046;-76
2022/06/13 05:58:11;;;;;;;2.47;1.10;;;;;;;23.77;40.69;100396.28;5079573;28;20527;-76
2022/06/13 06:00:57;;;;;;;2.53;1.13;;;;;;;23.66;41.67;100400.91;5080728;28;20043;-76
2022/06/13 06:03:24;;;;;;;2.85;1.30;;;;;;;23.86;40.61;100392.41;5083659;28;20047;-77
2022/06/13 06:05:50;;;;;;;3.87;0.93;;;;;;;24.06;40.28;100399.53;5085228;28;20454;-77
2022/06/13 06:08:24;;;;;;;4.78;1.02;;;;;;;24.54;39.42;100397.00;5083008;28;20300;-77
2022/06/13 06:10:53;;;;;;;3.85;1.30;;;;;;;24.60;39.47;100387.84;5086591;28;20135;-76
2022/06/13 06:13:19;;;;;;;4.78;1.13;;;;;;;24.45;39.38;100393.66;5071257;28;20728;-77
2022/06/13 06:15:46;;;;;;;3.35;1.55;;;;;;;23.68;39.85;100387.34;5086594;28;20458;-77
2022/06/13 06:18:13;;;;;;;5.68;1.63;;;;;;;23.25;40.86;100387.75;5082318;28;20059;-78
2022/06/13 06:20:39;;;;;;;2.40;1.50;;;;;;;23.14;40.98;100382.81;5080491;28;20111;-77
2022/06/13 06:23:06;;;;;;;4.30;1.58;;;;;;;23.29;40.70;100394.25;5084356;28;20040;-76
2022/06/13 06:25:32;;;;;;;2.15;1.10;;;;;;;23.30;40.96;100388.28;5084556;28;20117;-78
2022/06/13 06:27:58;;;;;;;3.67;1.13;;;;;;;23.14;40.07;100385.59;5088045;28;20410;-77
2022/06/13 06:30:25;;;;;;;1.65;1.02;;;;;;;23.12;40.65;100382.38;5088599;28;20086;-77
2022/06/13 06:32:50;;;;;;;2.47;1.13;;;;;;;23.37;40.51;100376.38;5084554;28;20044;-76
2022/06/13 06:35:16;;;;;;;3.05;1.50;;;;;;;23.85;40.52;100377.59;5088344;28;20042;-76
2022/06/13 06:37:47;;;;;;;2.50;1.25;;;;;;;24.05;39.23;100370.69;5086450;28;20104;-77
2022/06/13 06:40:14;;;;;;;3.55;2.28;;;;;;;23.77;38.60;100379.47;5086063;28;20581;-77
2022/06/13 06:42:40;;;;;;;3.25;1.58;;;;;;;23.41;38.78;100382.84;5089153;28;20530;-77
2022/06/13 06:45:06;;;;;;;2.28;1.15;;;;;;;23.19;39.32;100386.47;5078918;28;20133;-78
2022/06/13 06:47:32;;;;;;;2.72;1.17;;;;;;;22.97;39.95;100383.28;5084481;28;20032;-78
2022/06/13 06:49:58;;;;;;;3.22;1.90;;;;;;;22.40;40.99;100381.31;5081861;28;20093;-77
2022/06/13 06:52:24;;;;;;;2.10;1.25;;;;;;;22.28;41.38;100379.47;5088847;28;20496;-77
2022/06/13 07:00:19;;;;;;;4.93;2.17;;;;;;;22.84;40.94;100382.63;5083508;28;20392;-78
2022/06/13 07:02:45;;;;;;;3.17;1.13;;;;;;;22.87;40.44;100383.88;5083276;28;20037;-77
2022/06/13 07:05:12;;;;;;;2.15;1.05;;;;;;;22.61;40.78;100378.94;5085840;28;20058;-77
2022/06/13 07:07:37;;;;;;;2.75;1.42;;;;;;;22.31;41.04;100375.91;5081138;28;20036;-77
2022/06/13 07:10:04;;;;;;;2.85;1.05;;;;;;;22.16;41.26;100379.59;5086834;28;20040;-77
2022/06/13 07:12:29;;;;;;;1.13;0.90;;;;;;;22.22;41.51;100372.53;5081482;28;20655;-77
2022/06/13 07:14:55;;;;;;;2.30;1.35;;;;;;;22.53;40.68;100374.38;5086017;28;20040;-77
2022/06/13 07:17:22;;;;;;;2.47;1.20;;;;;;;22.38;41.51;100378.06;5083798;28;20387;-77
2022/06/13 07:19:47;;;;;;;3.17;1.73;;;;;;;22.45;41.16;100376.22;5085357;28;20502;-77
2022/06/13 07:22:17;;;;;;;5.50;1.48;;;;;;;22.48;41.40;100369.91;5087085;28;20044;-77
2022/06/13 07:24:44;;;;;;;3.05;1.30;;;;;;;22.49;41.22;100377.09;5084527;28;20032;-77
2022/06/13 07:27:10;;;;;;;6.00;1.10;;;;;;;22.74;40.82;100371.22;5088846;28;20047;-77
2022/06/13 07:29:35;;;;;;;4.18;1.95;;;;;;;23.09;39.85;100377.53;5082325;28;20036;-77
2022/06/13 07:32:08;;;;;;;3.40;1.38;;;;;;;23.48;39.94;100370.97;5084874;28;20066;-77
2022/06/13 07:34:35;;;;;;;2.72;1.15;;;;;;;23.76;38.87;100380.66;5082598;28;20040;-78
2022/06/13 07:37:02;;;;;;;1.80;0.90;;;;;;;23.90;38.75;100370.84;5074440;28;20101;-78
2022/06/13 07:39:28;;;;;;;;;;;;;;;23.84;38.55;100366.78;5089104;28;20038;-77
2022/06/13 07:41:54;;;;;;;4.00;0.85;;;;;;;23.85;38.22;100376.78;5089755;28;20019;-77
2022/06/13 07:44:29;;;;;;;4.15;1.10;;;;;;;23.51;38.75;100370.22;5081011;28;20127;-77
2022/06/13 07:46:55;;;;;;;2.28;1.08;;;;;;;23.14;39.72;100374.41;5072832;28;20043;-77
2022/06/13 07:49:21;;;;;;;1.73;0.80;;;;;;;23.11;39.89;100368.75;5085815;28;20040;-78
2022/06/13 07:51:47;;;;;;;2.92;1.00;;;;;;;23.09;39.80;100379.50;5080315;28;20071;-78
2022/06/13 07:54:13;;;;;;;2.58;0.90;;;;;;;23.37;39.78;100379.19;5076680;28;20233;-77
2022/06/13 07:56:39;;;;;;;3.90;1.38;;;;;;;23.45;39.27;100367.75;5076450;28;20077;-78
2022/06/13 07:59:07;;;;;;;4.13;1.50;;;;;;;23.54;39.27;100375.88;5090278;28;20032;-76
2022/06/13 08:01:33;;;;;;;1.15;0.98;;;;;;;23.43;39.11;100364.50;5080584;28;20058;-79
2022/06/13 08:03:58;;;;;;;2.25;0.95;;;;;;;23.38;39.28;100372.41;5074166;28;20033;-78
2022/06/13 08:06:25;;;;;;;2.15;0.90;;;;;;;23.55;39.48;100363.47;5072243;28;20098;-78
2022/06/13 08:08:51;;;;;;;4.43;0.82;;;;;;;23.71;38.54;100375.38;5089362;28;20043;-76
2022/06/13 08:11:20;;;;;;;3.22;0.90;;;;;;;23.80;38.11;100372.31;5083958;28;20053;-78
2022/06/13 08:13:46;;;;;;;2.20;0.80;;;;;;;23.76;38.40;100368.63;5079440;28;20058;-78
2022/06/13 08:16:12;;;;;;;2.13;0.80;;;;;;;23.68;39.18;100370.53;5079754;28;20047;-78
2022/06/13 08:18:38;;;;;;;3.88;0.93;;;;;;;23.72;38.46;100362.97;5067585;28;20508;-78
2022/06/13 08:21:04;;;;;;;2.25;0.90;;;;;;;23.74;38.49;100363.41;5091897;28;20418;-77
2022/06/13 08:23:29;;;;;;;3.55;1.02;;;;;;;23.59;37.81;100353.16;5078499;28;20040;-77
2022/06/13 08:25:55;;;;;;;1.75;1.30;;;;;;;23.38;38.22;100347.19;5085846;28;20048;-78
2022/06/13 08:28:21;;;;;;;2.40;1.10;;;;;;;23.48;39.05;100349.38;5086974;28;20044;-77
2022/06/13 08:31:07;;;;;;;1.50;1.20;;;;;;;23.39;39.08;100357.22;5070773;28;20055;-77
2022/06/13 08:33:33;;;;;;;4.13;0.95;;;;;;;23.23;38.81;100356.53;5078956;28;20094;-77
2022/06/13 08:35:59;;;;;;;4.35;1.25;;;;;;;23.44;39.47;100359.72;5069531;28;20127;-76
2022/06/13 08:38:25;;;;;;;2.83;0.98;;;;;;;23.50;38.58;100360.19;5090471;28;20032;-76
2022/06/13 08:41:15;;;;;;;5.63;1.00;;;;;;;23.02;39.05;100354.97;5090339;28;20375;-77
2022/06/13 08:44:00;;;;;;;0.90;0.88;;;;;;;22.76;39.51;100352.88;5089594;28;20516;-77
2022/06/13 08:46:55;;;;;;;2.25;1.00;;;;;;;22.43;40.11;100349.81;5079237;28;20041;-77
2022/06/13 08:49:33;;;;;;;1.77;0.90;;;;;;;22.20;40.99;100358.09;5077861;28;20044;-77
2022/06/13 08:52:28;;;;;;;4.25;1.20;;;;;;;22.11;41.01;100358.31;5073176;28;20040;-77
2022/06/13 08:55:22;;;;;;;2.45;1.08;;;;;;;21.97;41.19;100347.59;5082524;28;20075;-80
2022/06/13 08:58:05;;;;;;;3.17;1.30;;;;;;;21.97;41.93;100355.19;5086952;28;20043;-80
2022/06/13 09:00:33;;;;;;;1.65;1.20;;;;;;;21.98;41.91;100359.59;5078362;28;20583;-81
2022/06/13 09:03:16;;;;;;;2.23;1.00;;;;;;;21.79;41.40;100360.38;5089377;28;20127;-79
2022/06/13 09:05:56;;;;;;;2.80;0.95;;;;;;;21.69;41.98;100360.91;5070709;28;20135;-80
2022/06/13 09:08:51;;;;;;;3.17;1.27;;;;;;;21.50;42.52;100356.06;5072292;28;20572;-80
2022/06/13 09:11:18;;;;;;;3.60;1.15;;;;;;;21.32;42.71;100355.63;5083737;28;20056;-79
2022/06/13 09:13:56;;;;;;;2.65;1.40;;;;;;;21.08;43.03;100347.41;5081348;28;20036;-81
2022/06/13 09:16:32;;;;;;;1.83;1.30;;;;;;;20.91;43.41;100353.34;5079704;28;20055;-81
2022/06/13 09:19:21;;;;;;;1.90;1.20;;;;;;;20.84;43.85;100356.75;5080289;28;20473;-81
2022/06/13 09:22:19;;;;;;;2.28;1.20;;;;;;;20.94;43.94;100363.78;5078736;28;20040;-81
2022/06/13 09:24:52;;;;;;;4.40;2.13;;;;;;;20.88;43.55;100354.88;5074476;28;20040;-79
2022/06/13 09:27:24;;;;;;;2.15;1.20;;;;;;;20.84;43.79;100350.38;5080979;28;20107;-81
2022/06/13 09:29:56;;;;;;;2.65;1.50;;;;;;;20.90;44.00;100346.13;5082682;28;20029;-78
2022/06/13 09:32:27;;;;;;;3.65;1.33;;;;;;;20.92;43.10;100343.81;5085870;28;20081;-80
2022/06/13 09:34:58;;;;;;;2.45;1.20;;;;;;;21.04;42.83;100346.53;5076802;28;20132;-77
2022/06/13 09:37:36;;;;;;;2.15;1.00;;;;;;;21.13;42.58;100337.97;5083278;28;20477;-78
2022/06/13 09:40:02;;;;;;;5.70;1.27;;;;;;;21.23;42.36;100343.81;5084361;28;20456;-77
2022/06/13 09:42:57;;;;;;;1.98;1.30;;;;;;;21.43;42.23;100339.16;5084631;28;20040;-78
2022/06/13 09:45:32;;;;;;;4.90;1.30;;;;;;;21.58;41.87;100334.72;5078809;28;20044;-77
2022/06/13 09:48:04;;;;;;;3.65;1.50;;;;;;;21.73;41.03;100331.09;5088871;28;20044;-77
2022/06/13 09:50:48;;;;;;;2.97;1.20;;;;;;;21.71;41.05;100330.66;5081782;28;20040;-78
2022/06/13 09:53:32;;;;;;;5.40;1.20;;;;;;;21.73;40.72;100331.09;5082721;28;20052;-76
2022/06/13 09:56:13;;;;;;;3.45;1.20;;;;;;;21.54;41.12;100331.06;5073226;28;20044;-75
2022/06/13 09:58:55;;;;;;;1.98;1.17;;;;;;;21.50;40.63;100328.16;5076459;28;20032;-77
2022/06/13 10:01:32;;;;;;;2.28;1.10;;;;;;;21.49;41.41;100334.09;5078615;28;20091;-77
2022/06/13 10:04:13;;;;;;;2.97;1.20;;;;;;;21.63;40.55;100328.84;5085314;28;20544;-75
2022/06/13 10:06:38;;;;;;;1.38;1.15;;;;;;;21.70;40.98;100323.47;5075641;28;20055;-77
2022/06/13 10:09:26;;;;;;;2.10;0.98;;;;;;;21.76;41.04;100322.00;5072058;28;20494;-77
2022/06/13 10:11:58;;;;;;;2.13;1.13;;;;;;;21.86;41.03;100329.78;5076866;28;20089;-78
2022/06/13 10:14:46;;;;;;;9.98;1.35;;;;;;;21.91;40.98;100323.13;5076083;28;20062;-77
2022/06/13 10:17:50;;;;;;;3.25;1.10;;;;;;;21.80;40.98;100327.66;5080600;28;20035;-77
2022/06/13 10:20:31;;;;;;;2.70;1.27;;;;;;;21.73;41.50;100330.28;5074521;28;20040;-80
2022/06/13 10:23:48;;;;;;;3.47;1.30;;;;;;;21.74;41.70;100332.72;5081915;28;20205;-78
2022/06/13 10:26:22;;;;;;;1.92;1.08;;;;;;;21.76;41.70;100322.00;5066085;28;20043;-75
2022/06/13 10:28:53;;;;;;;3.30;1.17;;;;;;;21.70;41.50;100329.03;5082481;28;20166;-75
2022/06/13 10:31:38;;;;;;;2.85;1.63;;;;;;;21.59;41.66;100325.19;5080673;28;20032;-76
2022/06/13 10:34:31;;;;;;;1.73;1.13;;;;;;;21.39;42.59;100320.72;5083397;28;20091;-76
2022/06/13 10:37:04;;;;;;;2.05;1.00;;;;;;;21.16;42.97;100321.31;5077398;28;20039;-75
2022/06/13 10:39:29;;;;;;;3.60;1.50;;;;;;;21.10;43.27;100319.97;5071647;28;20033;-75
2022/06/13 10:42:07;;;;;;;4.85;1.20;;;;;;;20.99;44.37;100328.03;5084395;28;20044;-75
2022/06/13 10:44:33;;;;;;;4.90;1.33;;;;;;;21.02;44.08;100332.94;5085245;28;20503;-75
2022/06/13 10:47:07;;;;;;;4.40;1.42;;;;;;;21.08;44.38;100337.06;5074647;28;20497;-77
2022/06/13 10:49:49;;;;;;;2.25;1.30;;;;;;;20.93;44.97;100331.47;5069298;28;20032;-77
2022/06/13 10:52:20;;;;;;;1.55;1.10;;;;;;;20.95;44.96;100337.50;5061516;28;20065;-78
2022/06/13 10:54:49;;;;;;;2.67;1.80;;;;;;;21.00;44.58;100335.28;5079025;28;20047;-75
2022/06/13 10:57:22;;;;;;;3.40;1.45;;;;;;;21.06;44.37;100333.03;5054866;28;20044;-77
2022/06/13 11:00:13;;;;;;;2.92;1.40;;;;;;;21.04;43.99;100336.16;5084056;28;20051;-77
2022/06/13 11:02:38;;;;;;;4.63;1.40;;;;;;;20.98;44.14;100336.78;5080385;28;20114;-76
2022/06/13 11:05:10;;;;;;;3.53;1.50;;;;;;;20.95;44.64;100329.94;5079782;28;20040;-77
2022/06/13 11:07:50;;;;;;;7.72;1.90;;;;;;;20.93;44.75;100340.66;5088393;28;20104;-76
2022/06/13 11:10:34;;;;;;;4.00;1.42;;;;;;;20.89;45.20;100345.31;5085141;28;20085;-78
2022/06/13 11:13:02;;;;;;;4.07;1.40;;;;;;;20.96;45.43;100341.91;5070852;28;20043;-77
2022/06/13 11:24:23;;;;;;;4.72;1.60;;;;;;;21.28;46.60;100343.56;5094539;28;20127;-78
2022/06/13 11:29:35;;;;;;;3.47;1.90;;;;;;;21.01;48.36;100353.63;5084061;28;20446;-78
2022/06/13 11:32:04;;;;;;;5.40;1.85;;;;;;;20.83;49.20;100362.69;5064074;28;20047;-78
2022/06/13 11:34:38;;;;;;;4.72;1.73;;;;;;;20.60;49.56;100362.44;5093241;28;20036;-82
2022/06/13 11:37:13;;;;;;;3.03;1.63;;;;;;;20.56;50.63;100370.72;5074593;28;20122;-80
2022/06/13 11:39:42;;;;;;;4.55;1.80;;;;;;;20.54;52.03;100364.69;5079767;28;20036;-80
2022/06/13 11:42:16;;;;;;;1.95;1.38;;;;;;;20.35;53.82;100376.44;5082486;28;20040;-77
2022/06/13 11:44:48;;;;;;;4.80;1.80;;;;;;;20.11;55.80;100382.88;5079699;28;20044;-78
2022/06/13 11:47:15;;;;;;;5.32;1.77;;;;;;;19.80;58.84;100372.41;5085425;28;20067;-85
2022/06/13 11:49:43;;;;;;;4.10;1.60;;;;;;;19.51;60.41;100365.06;5090366;28;20445;-87
2022/06/13 11:52:09;;;;;;;3.20;1.45;;;;;;;19.35;60.79;100366.91;5080536;28;20498;-82
2022/06/13 11:54:47;;;;;;;1.73;1.60;;;;;;;19.31;62.69;100362.41;5094364;28;20040;-81
2022/06/13 11:57:12;;;;;;;6.10;1.47;;;;;;;19.09;63.70;100360.84;5090666;28;20044;-81
2022/06/13 12:00:04;;;;;;;3.45;1.50;;;;;;;18.92;63.66;100354.34;5080069;28;20862;-83
2022/06/13 12:02:39;;;;;;;3.10;1.73;;;;;;;19.01;63.70;100350.63;5073757;28;20059;-82
2022/06/13 12:05:28;;;;;;;2.00;1.80;;;;;;;18.84;63.16;100349.69;5073331;28;20131;-90
2022/06/13 12:07:54;;;;;;;3.08;1.67;;;;;;;18.87;63.13;100357.31;5076072;28;20036;-90
2022/06/13 12:10:22;;;;;;;4.18;2.00;;;;;;;18.97;62.03;100356.09;5072687;28;20044;-86
2022/06/13 12:12:48;;;;;;;;;;;;;;;19.09;61.05;100355.28;5088910;28;20040;-79
2022/06/13 12:15:15;;;;;;;7.25;1.70;;;;;;;19.26;61.87;100358.69;5090649;28;19920;-79
2022/06/13 12:17:55;;;;;;;3.58;1.40;;;;;;;19.43;61.32;100348.47;5089412;28;20040;-81
2022/06/13 12:20:36;;;;;;;2.22;1.50;;;;;;;19.46;60.64;100356.97;5078076;28;20040;-79